createdAt,value
2019-01-09T00:00:27.800Z,10.01
2019-01-09T00:02:56.058Z,9.68
2019-01-09T00:05:28.396Z,10.21
2019-01-09T00:08:41.008Z,9.96
2019-01-09T00:11:09.359Z,9.79
2019-01-09T00:13:38.689Z,9.69
2019-01-09T00:16:06.968Z,9.70
2019-01-09T00:18:36.215Z,9.93
2019-01-09T00:21:08.611Z,9.69
2019-01-09T00:23:36.920Z,9.60
2019-01-09T00:26:06.183Z,10.66
2019-01-09T00:28:34.455Z,11.03
2019-01-09T00:31:03.762Z,10.38
2019-01-09T00:33:32.059Z,10.65
2019-01-09T00:36:00.326Z,10.53
2019-01-09T00:38:28.685Z,10.54
2019-01-09T00:40:57.052Z,11.51
2019-01-09T00:43:26.434Z,11.21
2019-01-09T00:45:54.722Z,10.68
2019-01-09T00:48:23.073Z,10.96
2019-01-09T00:50:51.523Z,10.69
2019-01-09T00:53:20.922Z,10.27
2019-01-09T00:55:49.267Z,10.79
2019-01-09T00:58:17.612Z,11.40
2019-01-09T01:00:47.642Z,10.88
2019-01-09T01:03:43.171Z,10.85
2019-01-09T01:06:41.973Z,10.78
2019-01-09T01:09:16.624Z,11.14
2019-01-09T01:12:03.136Z,10.90
2019-01-09T01:14:50.835Z,10.90
2019-01-09T01:17:40.293Z,10.57
2019-01-09T01:20:11.785Z,10.75
2019-01-09T01:23:02.639Z,10.61
2019-01-09T01:25:36.605Z,11.00
2019-01-09T01:28:08.189Z,10.93
2019-01-09T01:31:02.309Z,10.99
2019-01-09T01:33:45.568Z,10.05
2019-01-09T01:36:19.800Z,10.86
2019-01-09T01:39:06.577Z,10.80
2019-01-09T01:41:38.045Z,10.61
2019-01-09T01:44:09.482Z,12.70
2019-01-09T01:46:57.182Z,11.82
2019-01-09T01:49:57.161Z,12.86
2019-01-09T01:52:34.364Z,12.84
2019-01-09T01:55:12.350Z,13.53
2019-01-09T01:57:46.532Z,13.72
2019-01-09T02:00:34.421Z,12.88
2019-01-09T02:03:11.652Z,13.65
2019-01-09T02:05:45.919Z,14.24
2019-01-09T02:08:47.704Z,15.81
2019-01-09T02:11:27.787Z,14.57
2019-01-09T02:13:59.282Z,14.54
2019-01-09T02:16:51.173Z,14.15
2019-01-09T02:19:37.441Z,14.08
2019-01-09T02:22:11.898Z,15.52
2019-01-09T02:24:43.358Z,14.68
2019-01-09T02:27:14.807Z,14.07
2019-01-09T02:29:46.318Z,14.38
2019-01-09T02:32:33.367Z,15.08
2019-01-09T02:35:02.611Z,13.70
2019-01-09T02:37:32.815Z,13.68
2019-01-09T02:40:01.102Z,13.03
2019-01-09T02:42:29.475Z,14.01
2019-01-09T02:44:57.779Z,13.76
2019-01-09T02:47:26.081Z,14.09
2019-01-09T02:49:54.875Z,13.26
2019-01-09T02:52:23.184Z,13.24
2019-01-09T02:54:52.486Z,13.48
2019-01-09T02:57:20.775Z,12.62
2019-01-09T02:59:49.063Z,11.94
2019-01-09T03:02:17.325Z,12.48
2019-01-09T03:04:45.681Z,11.45
2019-01-09T03:07:13.952Z,11.61
2019-01-09T03:09:42.217Z,13.59
2019-01-09T03:12:10.487Z,14.44
2019-01-09T03:14:38.808Z,13.89
2019-01-09T03:17:07.025Z,12.86
2019-01-09T03:19:35.295Z,13.76
2019-01-09T03:22:04.565Z,13.38
2019-01-09T03:24:32.871Z,12.98
2019-01-09T03:27:01.136Z,14.33
2019-01-09T03:29:29.564Z,12.92
2019-01-09T03:31:57.897Z,13.53
2019-01-09T03:34:26.166Z,14.34
2019-01-09T03:36:54.454Z,14.21
2019-01-09T03:39:22.723Z,15.59
2019-01-09T03:41:50.997Z,12.92
2019-01-09T03:44:19.249Z,13.24
2019-01-09T03:46:47.527Z,13.85
2019-01-09T03:49:15.844Z,13.88
2019-01-09T03:51:44.179Z,13.02
2019-01-09T03:54:13.400Z,13.25
2019-01-09T03:56:41.675Z,13.03
2019-01-09T03:59:09.961Z,12.43
2019-01-09T04:01:38.241Z,12.57
2019-01-09T04:04:06.537Z,11.85
2019-01-09T04:06:41.781Z,12.94
2019-01-09T04:09:05.464Z,12.79
2019-01-09T04:11:33.888Z,12.53
2019-01-09T04:14:02.210Z,14.10
2019-01-09T04:16:31.473Z,13.71
2019-01-09T04:18:59.770Z,13.93
2019-01-09T04:21:29.062Z,15.08
2019-01-09T04:23:57.320Z,14.65
2019-01-09T04:26:25.613Z,12.69
2019-01-09T04:28:53.930Z,13.62
2019-01-09T04:31:22.183Z,13.27
2019-01-09T04:33:50.452Z,13.25
2019-01-09T04:36:20.406Z,12.93
2019-01-09T04:38:48.676Z,12.29
2019-01-09T04:41:16.975Z,12.01
2019-01-09T04:43:45.260Z,12.55
2019-01-09T04:46:13.515Z,12.50
2019-01-09T04:48:41.773Z,11.90
2019-01-09T04:51:10.063Z,11.96
2019-01-09T04:53:38.311Z,11.80
2019-01-09T04:56:06.595Z,11.78
2019-01-09T04:58:34.860Z,12.10
2019-01-09T05:01:04.166Z,12.10
2019-01-09T05:03:33.466Z,12.10
2019-01-09T05:06:01.735Z,12.00
2019-01-09T05:08:30.007Z,11.76
2019-01-09T05:10:58.296Z,11.69
2019-01-09T05:13:27.587Z,11.82
2019-01-09T05:15:55.848Z,11.69
2019-01-09T05:18:25.205Z,12.04
2019-01-09T05:20:53.496Z,12.12
2019-01-09T05:23:23.285Z,11.64
2019-01-09T05:25:51.630Z,11.36
2019-01-09T05:28:20.939Z,11.66
2019-01-09T05:30:50.247Z,12.15
2019-01-09T05:33:18.540Z,12.12
2019-01-09T05:35:46.798Z,11.75
2019-01-09T05:38:15.079Z,11.15
2019-01-09T05:40:43.360Z,11.65
2019-01-09T05:43:11.724Z,11.57
2019-01-09T05:45:39.994Z,11.54
2019-01-09T05:48:08.273Z,11.23
2019-01-09T05:50:36.591Z,11.33
2019-01-09T05:53:05.956Z,11.91
2019-01-09T05:55:35.257Z,11.63
2019-01-09T05:58:03.544Z,11.83
2019-01-09T06:00:32.835Z,11.30
2019-01-09T06:03:01.141Z,10.70
2019-01-09T06:05:29.394Z,11.27
2019-01-09T06:07:57.677Z,11.31
2019-01-09T06:10:25.961Z,11.24
2019-01-09T06:12:55.244Z,11.69
2019-01-09T06:15:23.552Z,11.08
2019-01-09T06:17:51.847Z,10.85
2019-01-09T06:20:20.124Z,10.90
2019-01-09T06:22:48.417Z,11.27
2019-01-09T06:25:16.712Z,11.27
2019-01-09T06:27:44.985Z,10.91
2019-01-09T06:30:16.421Z,11.28
2019-01-09T06:32:44.803Z,10.96
2019-01-09T06:35:13.160Z,10.72
2019-01-09T06:37:41.516Z,11.07
2019-01-09T06:40:09.784Z,10.94
2019-01-09T06:42:38.046Z,10.40
2019-01-09T06:45:06.809Z,10.68
2019-01-09T06:47:37.071Z,10.59
2019-01-09T06:50:08.524Z,11.00
2019-01-09T06:52:37.053Z,10.61
2019-01-09T06:55:05.561Z,10.71
2019-01-09T06:57:33.851Z,10.37
2019-01-09T07:00:02.126Z,10.55
2019-01-09T07:02:30.426Z,10.89
2019-01-09T07:04:58.788Z,10.99
2019-01-09T07:07:35.809Z,11.10
2019-01-09T07:09:57.177Z,10.67
2019-01-09T07:12:25.474Z,11.10
2019-01-09T07:14:53.961Z,11.44
2019-01-09T07:17:22.242Z,10.86
2019-01-09T07:19:50.530Z,10.81
2019-01-09T07:22:18.796Z,10.61
2019-01-09T07:24:47.123Z,11.58
2019-01-09T07:27:15.401Z,12.20
2019-01-09T07:29:43.682Z,11.78
2019-01-09T07:32:13.945Z,12.01
2019-01-09T07:34:42.203Z,11.33
2019-01-09T07:37:10.500Z,11.62
2019-01-09T07:39:40.007Z,12.07
2019-01-09T07:42:08.368Z,11.94
2019-01-09T07:44:36.633Z,11.92
2019-01-09T07:47:04.968Z,11.60
2019-01-09T07:49:33.316Z,11.80
2019-01-09T07:52:01.619Z,11.52
2019-01-09T07:54:29.891Z,11.74
2019-01-09T07:56:58.173Z,11.67
2019-01-09T07:59:26.459Z,11.90
2019-01-09T08:01:55.751Z,11.98
2019-01-09T08:04:24.017Z,12.09
2019-01-09T08:06:52.326Z,11.70
2019-01-09T08:09:20.657Z,11.33
2019-01-09T08:11:48.921Z,11.45
2019-01-09T08:14:17.190Z,12.30
2019-01-09T08:16:45.533Z,12.44
2019-01-09T08:19:13.873Z,12.23
2019-01-09T08:21:42.175Z,11.80
2019-01-09T08:24:15.557Z,12.04
2019-01-09T08:26:44.017Z,12.09
2019-01-09T08:29:12.306Z,11.82
2019-01-09T08:31:40.621Z,11.50
2019-01-09T08:34:08.907Z,11.78
2019-01-09T08:36:37.182Z,11.45
2019-01-09T08:39:06.679Z,12.11
2019-01-09T08:41:35.195Z,11.66
2019-01-09T08:44:03.461Z,11.82
2019-01-09T08:46:31.730Z,11.93
2019-01-09T08:48:59.977Z,11.64
2019-01-09T08:51:28.256Z,12.01
2019-01-09T08:53:57.530Z,12.06
2019-01-09T08:56:25.828Z,11.89
2019-01-09T08:58:56.168Z,12.35
2019-01-09T09:01:24.479Z,12.73
2019-01-09T09:03:53.992Z,12.11
2019-01-09T09:06:29.216Z,12.67
2019-01-09T09:09:02.235Z,11.78
2019-01-09T09:11:32.476Z,11.51
2019-01-09T09:14:00.761Z,11.81
2019-01-09T09:16:36.634Z,12.30
2019-01-09T09:18:59.093Z,12.18
2019-01-09T09:21:27.497Z,11.34
2019-01-09T09:23:55.741Z,10.85
2019-01-09T09:26:24.036Z,11.31
2019-01-09T09:28:52.291Z,12.54
2019-01-09T09:31:20.570Z,11.85
2019-01-09T09:33:48.841Z,11.78
2019-01-09T09:36:17.104Z,11.63
2019-01-09T09:38:45.360Z,12.67
2019-01-09T09:41:20.655Z,12.22
2019-01-09T09:43:48.903Z,12.09
2019-01-09T09:46:17.166Z,12.47
2019-01-09T09:48:45.485Z,12.17
2019-01-09T09:51:13.752Z,12.96
2019-01-09T09:53:42.032Z,12.92
2019-01-09T09:56:11.302Z,13.58
2019-01-09T09:58:39.577Z,12.24
2019-01-09T10:01:07.838Z,11.99
2019-01-09T10:03:36.144Z,12.55
2019-01-09T10:06:04.600Z,12.47
2019-01-09T10:08:32.883Z,12.59
2019-01-09T10:11:01.291Z,12.77
2019-01-09T10:13:29.553Z,12.67
2019-01-09T10:15:57.808Z,12.48
2019-01-09T10:18:26.090Z,13.59
2019-01-09T10:20:54.522Z,12.87
2019-01-09T10:23:22.736Z,13.08
2019-01-09T10:25:51.011Z,12.83
2019-01-09T10:28:19.310Z,12.50
2019-01-09T10:30:47.707Z,12.08
2019-01-09T10:33:15.967Z,11.10
2019-01-09T10:35:44.256Z,9.84
2019-01-09T10:38:12.539Z,10.05
2019-01-09T10:40:40.783Z,10.14
2019-01-09T10:43:09.066Z,9.80
2019-01-09T10:45:37.393Z,9.87
2019-01-09T10:48:06.834Z,9.97
2019-01-09T10:50:35.133Z,10.91
2019-01-09T10:53:03.393Z,10.17
2019-01-09T10:55:31.664Z,10.67
2019-01-09T10:57:59.929Z,10.60
2019-01-09T11:00:28.244Z,10.31
2019-01-09T11:02:56.706Z,10.98
2019-01-09T11:05:25.043Z,11.13
2019-01-09T11:07:53.311Z,10.92
2019-01-09T11:10:23.661Z,10.35
2019-01-09T11:12:52.013Z,10.15
2019-01-09T11:15:23.488Z,9.96
2019-01-09T11:17:51.768Z,10.50
2019-01-09T11:20:21.386Z,9.89
2019-01-09T11:22:49.765Z,9.82
2019-01-09T11:25:20.359Z,10.43
2019-01-09T11:27:48.731Z,10.71
2019-01-09T11:30:18.366Z,10.37
2019-01-09T11:32:46.766Z,11.83
2019-01-09T11:35:17.406Z,11.42
2019-01-09T11:37:45.707Z,11.22
2019-01-09T11:40:16.671Z,11.26
2019-01-09T11:42:45.005Z,11.41
2019-01-09T11:45:18.804Z,11.29
2019-01-09T11:47:47.623Z,10.86
2019-01-09T11:50:16.678Z,10.66
2019-01-09T11:52:45.058Z,10.35
2019-01-09T11:55:14.670Z,10.75
2019-01-09T11:57:42.930Z,10.81
2019-01-09T12:00:22.863Z,10.69
2019-01-09T12:02:52.256Z,10.93
2019-01-09T12:05:20.517Z,10.50
2019-01-09T12:07:48.859Z,10.64
2019-01-09T12:10:19.462Z,11.64
2019-01-09T12:12:47.810Z,11.38
2019-01-09T12:15:17.538Z,10.62
2019-01-09T12:17:45.875Z,10.53
2019-01-09T12:20:18.476Z,10.58
2019-01-09T12:22:47.123Z,10.78
2019-01-09T12:25:15.393Z,10.48
2019-01-09T12:27:43.674Z,10.28
2019-01-09T12:30:26.515Z,11.21
2019-01-09T12:32:54.842Z,10.57
2019-01-09T12:35:23.338Z,11.41
2019-01-09T12:37:51.703Z,10.70
2019-01-09T12:40:20.118Z,11.05
2019-01-09T12:42:48.418Z,11.40
2019-01-09T12:45:17.459Z,11.47
2019-01-09T12:47:46.840Z,11.62
2019-01-09T12:50:18.431Z,11.29
2019-01-09T12:52:46.696Z,11.64
2019-01-09T12:55:15.024Z,12.08
2019-01-09T12:57:43.283Z,11.64
2019-01-09T13:00:20.762Z,11.60
2019-01-09T13:02:50.022Z,12.72
2019-01-09T13:05:18.316Z,13.50
2019-01-09T13:07:46.593Z,13.34
2019-01-09T13:10:14.990Z,12.91
2019-01-09T13:12:43.568Z,12.39
2019-01-09T13:15:12.172Z,12.66
2019-01-09T13:17:40.496Z,11.85
2019-01-09T13:20:14.029Z,12.52
2019-01-09T13:22:42.598Z,11.05
2019-01-09T13:25:12.403Z,12.19
2019-01-09T13:27:44.355Z,12.64
2019-01-09T13:30:15.823Z,11.51
2019-01-09T13:32:44.172Z,12.24
2019-01-09T13:35:12.502Z,12.46
2019-01-09T13:37:40.772Z,12.90
2019-01-09T13:40:14.128Z,13.06
2019-01-09T13:42:42.444Z,12.26
2019-01-09T13:45:13.459Z,12.36
2019-01-09T13:47:41.997Z,11.33
2019-01-09T13:50:12.797Z,12.16
2019-01-09T13:52:41.052Z,11.02
2019-01-09T13:55:11.663Z,12.10
2019-01-09T13:57:40.114Z,11.63
2019-01-09T14:00:11.636Z,12.12
2019-01-09T14:02:40.573Z,12.54
2019-01-09T14:05:09.867Z,12.62
2019-01-09T14:07:38.234Z,13.14
2019-01-09T14:10:23.875Z,12.07
2019-01-09T14:12:52.137Z,12.58
2019-01-09T14:15:21.847Z,11.68
2019-01-09T14:20:35.445Z,12.04
2019-01-09T14:23:03.691Z,12.17
2019-01-09T14:25:31.967Z,11.05
2019-01-09T14:28:01.482Z,11.40
2019-01-09T14:30:30.056Z,11.94
2019-01-09T14:32:58.318Z,12.49
2019-01-09T14:35:26.607Z,10.24
2019-01-09T14:37:54.893Z,10.59
2019-01-09T14:40:23.227Z,11.33
2019-01-09T14:42:51.516Z,11.59
2019-01-09T14:45:19.791Z,12.45
2019-01-09T14:47:48.098Z,12.31
2019-01-09T14:50:19.112Z,12.17
2019-01-09T14:52:47.390Z,12.23
2019-01-09T14:55:16.402Z,12.65
2019-01-09T14:57:45.025Z,12.81
2019-01-09T15:00:16.394Z,11.54
2019-01-09T15:02:44.682Z,11.19
2019-01-09T15:05:13.076Z,11.74
2019-01-09T15:07:41.378Z,11.91
2019-01-09T15:10:18.076Z,11.09
2019-01-09T15:12:47.003Z,11.39
2019-01-09T15:15:17.128Z,11.15
2019-01-09T15:17:45.427Z,11.39
2019-01-09T15:20:22.037Z,11.29
2019-01-09T15:22:50.363Z,11.90
2019-01-09T15:25:19.012Z,11.46
2019-01-09T15:27:47.660Z,11.56
2019-01-09T15:30:19.115Z,12.40
2019-01-09T15:32:47.589Z,11.05
2019-01-09T15:35:15.854Z,11.52
2019-01-09T15:37:44.115Z,10.97
2019-01-09T15:40:18.567Z,11.52
2019-01-09T15:42:47.017Z,11.96
2019-01-09T15:45:15.371Z,12.11
2019-01-09T15:47:44.201Z,12.01
2019-01-09T15:50:20.988Z,12.43
2019-01-09T15:52:49.274Z,11.59
2019-01-09T15:55:17.876Z,11.66
2019-01-09T15:57:47.886Z,11.47
2019-01-09T16:00:19.443Z,11.95
2019-01-09T16:02:47.708Z,11.40
2019-01-09T16:05:16.356Z,11.14
2019-01-09T16:07:44.613Z,11.42
2019-01-09T16:10:18.792Z,11.03
2019-01-09T16:12:47.049Z,11.54
2019-01-09T16:15:17.943Z,12.00
2019-01-09T16:17:47.394Z,11.47
2019-01-09T16:20:20.452Z,11.21
2019-01-09T16:22:49.767Z,11.74
2019-01-09T16:25:20.208Z,11.05
2019-01-09T16:27:48.496Z,11.09
2019-01-09T16:30:34.212Z,11.88
2019-01-09T16:33:04.562Z,11.56
2019-01-09T16:35:35.037Z,11.29
2019-01-09T16:38:03.756Z,11.25
2019-01-09T16:40:32.308Z,11.78
2019-01-09T16:43:01.661Z,10.53
2019-01-09T16:45:30.306Z,11.72
2019-01-09T16:47:58.589Z,11.66
2019-01-09T16:50:28.268Z,11.47
2019-01-09T16:52:56.532Z,11.52
2019-01-09T16:55:25.087Z,11.79
2019-01-09T16:57:53.365Z,11.03
2019-01-09T17:00:36.722Z,11.14
2019-01-09T17:03:05.162Z,11.47
2019-01-09T17:05:33.529Z,11.42
2019-01-09T17:08:02.169Z,11.95
2019-01-09T17:10:32.563Z,11.78
2019-01-09T17:13:00.494Z,11.50
2019-01-09T17:15:28.839Z,11.31
2019-01-09T17:17:57.187Z,11.55
2019-01-09T17:20:27.432Z,11.06
2019-01-09T17:22:57.761Z,11.61
2019-01-09T17:25:26.099Z,12.24
2019-01-09T17:27:55.501Z,11.77
2019-01-09T17:30:27.308Z,11.47
2019-01-09T17:32:55.722Z,12.45
2019-01-09T17:35:24.096Z,11.08
2019-01-09T17:37:52.664Z,11.71
2019-01-09T17:40:25.540Z,12.42
2019-01-09T17:42:54.137Z,11.83
2019-01-09T17:45:22.421Z,11.99
2019-01-09T17:47:57.664Z,12.20
2019-01-09T17:50:51.571Z,11.11
2019-01-09T17:53:19.894Z,10.95
2019-01-09T17:55:48.142Z,11.05
2019-01-09T17:58:17.426Z,10.82
2019-01-09T18:00:46.154Z,10.62
2019-01-09T18:03:15.448Z,11.04
2019-01-09T18:05:43.735Z,11.50
2019-01-09T18:08:12.028Z,11.61
2019-01-09T18:10:40.290Z,10.91
2019-01-09T18:13:12.333Z,10.81
2019-01-09T18:15:40.699Z,11.12
2019-01-09T18:18:09.018Z,10.93
2019-01-09T18:20:37.278Z,11.23
2019-01-09T18:23:05.693Z,11.55
2019-01-09T18:25:33.980Z,11.54
2019-01-09T18:28:02.268Z,11.75
2019-01-09T18:30:45.922Z,10.86
2019-01-09T18:33:19.808Z,10.39
2019-01-09T18:36:10.274Z,11.28
2019-01-09T18:38:53.125Z,11.41
2019-01-09T18:41:24.574Z,12.02
2019-01-09T18:44:04.624Z,10.77
2019-01-09T18:47:04.264Z,11.13
2019-01-09T18:49:41.670Z,11.03
2019-01-09T18:52:15.891Z,10.82
2019-01-09T18:54:44.195Z,11.50
2019-01-09T18:57:12.496Z,10.64
2019-01-09T18:59:40.761Z,10.83
2019-01-09T19:02:10.361Z,11.13
2019-01-09T19:04:40.077Z,11.39
2019-01-09T19:07:08.772Z,10.40
2019-01-09T19:09:37.094Z,10.71
2019-01-09T19:12:05.488Z,10.95
2019-01-09T19:14:33.739Z,11.26
2019-01-09T19:17:02.016Z,11.52
2019-01-09T19:19:30.607Z,11.50
2019-01-09T19:21:58.824Z,10.89
2019-01-09T19:24:27.116Z,11.35
2019-01-09T19:26:55.366Z,11.48
2019-01-09T19:29:23.718Z,11.39
2019-01-09T19:31:52.344Z,11.18
2019-01-09T19:34:21.222Z,11.01
2019-01-09T19:36:49.499Z,10.87
2019-01-09T19:39:17.782Z,11.20
2019-01-09T19:41:46.062Z,11.00
2019-01-09T19:44:14.372Z,11.10
2019-01-09T19:46:42.634Z,11.02
2019-01-09T19:49:10.932Z,10.36
2019-01-09T19:51:39.203Z,11.49
2019-01-09T19:54:07.488Z,11.77
2019-01-09T19:56:35.762Z,11.31
2019-01-09T19:59:04.280Z,12.20
2019-01-09T20:01:32.590Z,11.91
2019-01-09T20:04:00.843Z,12.11
2019-01-09T20:06:29.104Z,11.93
2019-01-09T20:08:57.412Z,12.04
2019-01-09T20:11:26.479Z,11.20
2019-01-09T20:13:54.971Z,12.11
2019-01-09T20:16:23.288Z,11.16
2019-01-09T20:18:51.540Z,11.07
2019-01-09T20:21:19.885Z,11.21
2019-01-09T20:23:48.225Z,11.48
2019-01-09T20:26:16.599Z,11.94
2019-01-09T20:28:44.932Z,11.47
2019-01-09T20:31:13.281Z,11.59
2019-01-09T20:33:41.505Z,11.33
2019-01-09T20:36:09.777Z,12.22
2019-01-09T20:38:38.184Z,11.51
2019-01-09T20:41:06.517Z,11.26
2019-01-09T20:43:34.822Z,11.07
2019-01-09T20:46:03.236Z,11.51
2019-01-09T20:48:31.609Z,12.27
2019-01-09T20:51:00.009Z,11.60
2019-01-09T20:53:28.357Z,10.72
2019-01-09T20:55:56.759Z,11.77
2019-01-09T20:58:25.010Z,11.82
2019-01-09T21:00:53.411Z,11.25
2019-01-09T21:03:21.862Z,11.67
2019-01-09T21:05:50.094Z,12.05
2019-01-09T21:08:19.606Z,11.32
2019-01-09T21:10:48.103Z,11.84
2019-01-09T21:13:16.392Z,12.66
2019-01-09T21:15:44.779Z,10.74
2019-01-09T21:18:13.185Z,10.31
2019-01-09T21:20:41.581Z,10.95
2019-01-09T21:23:09.936Z,10.92
2019-01-09T21:25:39.288Z,11.62
2019-01-09T21:28:07.604Z,11.70
2019-01-09T21:30:36.989Z,12.34
2019-01-09T21:33:05.671Z,11.65
2019-01-09T21:35:36.607Z,11.69
2019-01-09T21:38:06.905Z,11.13
2019-01-09T21:40:35.210Z,10.78
2019-01-09T21:43:03.596Z,11.29
2019-01-09T21:45:31.950Z,11.07
2019-01-09T21:48:00.266Z,11.45
2019-01-09T21:50:28.883Z,11.68
2019-01-09T21:52:57.226Z,12.72
2019-01-09T21:55:25.660Z,12.70
2019-01-09T21:57:54.893Z,12.13
2019-01-09T22:00:25.227Z,11.11
2019-01-09T22:02:53.492Z,11.98
2019-01-09T22:05:22.433Z,11.62
2019-01-09T22:07:51.498Z,10.85
2019-01-09T22:10:27.987Z,10.25
2019-01-09T22:12:57.420Z,10.10
2019-01-09T22:15:26.141Z,10.75
2019-01-09T22:17:55.336Z,11.48
2019-01-09T22:20:23.820Z,11.56
2019-01-09T22:22:52.103Z,11.62
2019-01-09T22:25:24.384Z,11.10
2019-01-09T22:27:55.292Z,10.94
2019-01-09T22:30:26.497Z,10.48
2019-01-09T22:33:00.805Z,10.48
2019-01-09T22:35:29.152Z,10.14
2019-01-09T22:38:04.553Z,10.03
2019-01-09T22:40:32.839Z,10.05
2019-01-09T22:43:09.910Z,10.14
2019-01-09T22:45:38.196Z,9.78
2019-01-09T22:48:07.449Z,10.89
2019-01-09T22:50:35.714Z,11.13
2019-01-09T22:53:04.073Z,10.34
2019-01-09T22:55:32.364Z,10.32
2019-01-09T22:58:00.640Z,9.59
2019-01-09T23:00:43.627Z,9.82
2019-01-09T23:03:14.221Z,9.92
2019-01-09T23:05:45.723Z,9.67
2019-01-09T23:08:14.009Z,10.13
2019-01-09T23:10:42.385Z,10.46
2019-01-09T23:13:12.876Z,9.60
2019-01-09T23:15:42.315Z,10.06
2019-01-09T23:18:12.848Z,10.28
2019-01-09T23:20:41.120Z,10.26
2019-01-09T23:23:15.932Z,9.14
2019-01-09T23:25:44.231Z,10.49
2019-01-09T23:28:12.699Z,10.85
2019-01-09T23:30:40.970Z,9.60
2019-01-09T23:33:09.352Z,9.92
2019-01-09T23:35:37.705Z,10.34
2019-01-09T23:38:06.092Z,9.75
2019-01-09T23:40:34.467Z,10.51
2019-01-09T23:43:02.829Z,10.62
2019-01-09T23:45:31.346Z,11.79
2019-01-09T23:48:01.619Z,11.05
2019-01-09T23:50:30.216Z,10.97
2019-01-09T23:53:01.777Z,10.93
2019-01-09T23:55:30.399Z,11.61
2019-01-09T23:57:58.764Z,11.07
